Aegean Viii — SXKO — position and weather

sailwx.info

Track history (hours):
 
Tides and Currents Weather Stations Pressure Air Temp Water Temp Dewpoint Dewpoint Depression Visibility Wind Speed Wind Dir Waves Ship Positions

Aegean Viii

Last reported at 2014-Oct-24 11:34 UTC. Time now 2014-Oct-24 12:05 UTC.
Position N 38°02' E 023°35'.

Length 12 m; draft 4.5 m.

Type: Tanker. MMSI: 240732000.

Date/timePositionNaut miles runAvg speedWind from/ knotsBaromVisibWave heightAir tempDewpointWater temp
2014-Oct-24 11:34N 38°02' E 023°35'0 0.1
2014-Oct-24 10:34N 38°02' E 023°35'0 0.1
2014-Oct-24 09:34N 38°02' E 023°35'2 2.1
2014-Oct-24 08:34N 38°02' E 023°32'0 0.1
2014-Oct-24 07:34N 38°02' E 023°32'0 0.0
2014-Oct-24 06:33N 38°02' E 023°32'0 0.0
2014-Oct-24 05:33N 38°02' E 023°32'0 0.0
2014-Oct-24 04:33N 38°02' E 023°32'0 0.0
2014-Oct-23 17:33N 38°02' E 023°32'6 5.9
2014-Oct-23 16:33N 37°57' E 023°36'0 0.1
2014-Oct-23 15:33N 37°58' E 023°36'0 0.0
2014-Oct-23 14:33N 37°58' E 023°36'0 0.0
2014-Oct-23 13:33N 37°58' E 023°36'4 4.3
2014-Oct-23 12:33N 38°00' E 023°32'1 0.7
2014-Oct-23 11:33N 38°01' E 023°32'0 0.0
2014-Oct-23 10:33N 38°01' E 023°32'0 0.0
2014-Oct-23 09:33N 38°01' E 023°32'0 0.0
2014-Oct-23 08:33N 38°01' E 023°32'0 0.0
2014-Oct-23 07:33N 38°01' E 023°32'0 0.1
2014-Oct-23 06:33N 38°01' E 023°32'0 0.0
2014-Oct-23 05:33N 38°01' E 023°32'0 0.0
2014-Oct-23 04:33N 38°01' E 023°32'1 1.2
2014-Oct-23 03:33N 38°02' E 023°32'0 0.0
2014-Oct-23 02:33N 38°02' E 023°32'0 0.0
2014-Oct-22 10:08N 38°02' E 023°32'0 0.0
2014-Oct-22 09:33N 38°02' E 023°32'3 2.9
2014-Oct-22 08:34N 38°02' E 023°36'0 0.0
2014-Oct-22 07:34N 38°02' E 023°36'0 0.0
2014-Oct-22 06:34N 38°02' E 023°36'0 0.0
2014-Oct-22 05:33N 38°02' E 023°36'0 0.2
2014-Oct-22 04:34N 38°02' E 023°35'3 2.7
2014-Oct-22 03:34N 38°02' E 023°32'0 0.0
2014-Oct-21 10:33N 38°02' E 023°32'0 0.0
2014-Oct-21 09:33N 38°02' E 023°32'0 0.0
2014-Oct-21 08:33N 38°02' E 023°32'5 5.1
2014-Oct-21 07:33N 37°57' E 023°34'1 1.4
2014-Oct-21 06:33N 37°57' E 023°35'0 0.0
2014-Oct-21 05:33N 37°57' E 023°35'2 2.5
2014-Oct-21 04:33N 37°58' E 023°33'4 3.7
2014-Oct-21 03:30N 38°02' E 023°32'0 0.0
2014-Oct-21 02:32N 38°02' E 023°32'0 0.0
2014-Oct-20 11:29N 38°02' E 023°32'0 0.0
2014-Oct-20 10:33N 38°02' E 023°32'0 0.0
2014-Oct-20 09:33N 38°02' E 023°32'0 0.0
2014-Oct-20 08:33N 38°02' E 023°32'0 0.0
2014-Oct-20 07:33N 38°02' E 023°32'0 0.0
2014-Oct-20 06:33N 38°02' E 023°32'0 0.0
2014-Oct-20 05:33N 38°02' E 023°32'0 0.0
2014-Oct-20 04:33N 38°02' E 023°32'0 0.0
2014-Oct-19 09:34N 38°02' E 023°32'6 6.0
2014-Oct-19 08:34N 37°57' E 023°36'1 0.8
2014-Oct-19 07:33N 37°58' E 023°36'0 0.0
2014-Oct-19 06:33N 37°58' E 023°36'0 0.0
2014-Oct-19 05:33N 37°58' E 023°36'3 3.2
2014-Oct-19 04:33N 37°59' E 023°33'3 3.4
2014-Oct-19 03:33N 38°02' E 023°32'0 0.0
2014-Oct-19 02:33N 38°02' E 023°32'0 0.0
2014-Oct-18 18:33N 38°02' E 023°32'1 0.7
2014-Oct-18 17:34N 38°02' E 023°32'5 5.1
2014-Oct-18 16:34N 37°57' E 023°36'1 0.2
2014-Oct-18 10:33N 37°57' E 023°36'1 0.8
2014-Oct-18 09:32N 37°56' E 023°37'0 0.0
2014-Oct-18 08:28N 37°56' E 023°37'0 0.0
2014-Oct-18 07:28N 37°56' E 023°37'0 0.0
2014-Oct-18 06:32N 37°56' E 023°37'0 0.0
2014-Oct-18 05:33N 37°56' E 023°37'1 0.6
2014-Oct-18 04:33N 37°56' E 023°37'2 2.0
2014-Oct-18 03:30N 37°57' E 023°34'0 0.0
2014-Oct-18 02:31N 37°57' E 023°34'0 0.0
2014-Oct-18 01:31N 37°57' E 023°34'0 0.0
2014-Oct-18 00:32N 37°57' E 023°34'0 0.0
2014-Oct-17 23:31N 37°57' E 023°34'4 4.5
2014-Oct-17 22:33N 37°53' E 023°32'0 0.0
2014-Oct-17 21:30N 37°53' E 023°32'0 0.0
2014-Oct-17 20:31N 37°53' E 023°32'0 0.1
2014-Oct-17 19:32N 37°53' E 023°32'4 3.9
2014-Oct-17 18:33N 37°56' E 023°35'1 0.9
2014-Oct-17 17:27N 37°57' E 023°34'1 1.6
2014-Oct-17 16:34N 37°58' E 023°33'4 0.2
2014-Oct-16 18:22N 38°02' E 023°33'2 0.2
2014-Oct-16 10:29N 38°02' E 023°36'1 0.6
2014-Oct-16 09:05N 38°02' E 023°35'0 0.0
2014-Oct-16 08:29N 38°02' E 023°35'2 0.1
2014-Oct-15 12:34N 38°00' E 023°33'4 3.7
2014-Oct-15 11:29N 37°58' E 023°36'0 0.0
2014-Oct-15 10:27N 37°58' E 023°36'0 0.3
2014-Oct-15 09:33N 37°57' E 023°36'1 1.1
2014-Oct-15 08:31N 37°57' E 023°35'0 0.3
2014-Oct-15 07:32N 37°57' E 023°34'5 5.3
2014-Oct-15 06:33N 38°02' E 023°32'  
Track history (hours):
 
Tides and Currents Weather Stations Pressure Air Temp Water Temp Dewpoint Dewpoint Depression Visibility Wind Speed Wind Dir Waves Ship Positions

Aegean Viii

Last reported at 2014-Oct-24 11:34 UTC. Time now 2014-Oct-24 12:05 UTC.
Position N 38°02' E 023°35'.

Length 12 m; draft 4.5 m.

Type: Tanker. MMSI: 240732000.

Date/timePositionNaut miles runAvg speedWind from/ knotsBaromVisibWave heightAir tempDewpointWater temp
2014-Oct-24 11:34N 38°02' E 023°35'0 0.1
2014-Oct-24 10:34N 38°02' E 023°35'0 0.1
2014-Oct-24 09:34N 38°02' E 023°35'2 2.1
2014-Oct-24 08:34N 38°02' E 023°32'0 0.1
2014-Oct-24 07:34N 38°02' E 023°32'0 0.0
2014-Oct-24 06:33N 38°02' E 023°32'0 0.0
2014-Oct-24 05:33N 38°02' E 023°32'0 0.0
2014-Oct-24 04:33N 38°02' E 023°32'0 0.0
2014-Oct-23 17:33N 38°02' E 023°32'6 5.9
2014-Oct-23 16:33N 37°57' E 023°36'0 0.1
2014-Oct-23 15:33N 37°58' E 023°36'0 0.0
2014-Oct-23 14:33N 37°58' E 023°36'0 0.0
2014-Oct-23 13:33N 37°58' E 023°36'4 4.3
2014-Oct-23 12:33N 38°00' E 023°32'1 0.7
2014-Oct-23 11:33N 38°01' E 023°32'0 0.0
2014-Oct-23 10:33N 38°01' E 023°32'0 0.0
2014-Oct-23 09:33N 38°01' E 023°32'0 0.0
2014-Oct-23 08:33N 38°01' E 023°32'0 0.0
2014-Oct-23 07:33N 38°01' E 023°32'0 0.1
2014-Oct-23 06:33N 38°01' E 023°32'0 0.0
2014-Oct-23 05:33N 38°01' E 023°32'0 0.0
2014-Oct-23 04:33N 38°01' E 023°32'1 1.2
2014-Oct-23 03:33N 38°02' E 023°32'0 0.0
2014-Oct-23 02:33N 38°02' E 023°32'0 0.0
2014-Oct-22 10:08N 38°02' E 023°32'0 0.0
2014-Oct-22 09:33N 38°02' E 023°32'3 2.9
2014-Oct-22 08:34N 38°02' E 023°36'0 0.0
2014-Oct-22 07:34N 38°02' E 023°36'0 0.0
2014-Oct-22 06:34N 38°02' E 023°36'0 0.0
2014-Oct-22 05:33N 38°02' E 023°36'0 0.2
2014-Oct-22 04:34N 38°02' E 023°35'3 2.7
2014-Oct-22 03:34N 38°02' E 023°32'0 0.0
2014-Oct-21 10:33N 38°02' E 023°32'0 0.0
2014-Oct-21 09:33N 38°02' E 023°32'0 0.0
2014-Oct-21 08:33N 38°02' E 023°32'5 5.1
2014-Oct-21 07:33N 37°57' E 023°34'1 1.4
2014-Oct-21 06:33N 37°57' E 023°35'0 0.0
2014-Oct-21 05:33N 37°57' E 023°35'2 2.5
2014-Oct-21 04:33N 37°58' E 023°33'4 3.7
2014-Oct-21 03:30N 38°02' E 023°32'0 0.0
2014-Oct-21 02:32N 38°02' E 023°32'0 0.0
2014-Oct-20 11:29N 38°02' E 023°32'0 0.0
2014-Oct-20 10:33N 38°02' E 023°32'0 0.0
2014-Oct-20 09:33N 38°02' E 023°32'0 0.0
2014-Oct-20 08:33N 38°02' E 023°32'0 0.0
2014-Oct-20 07:33N 38°02' E 023°32'0 0.0
2014-Oct-20 06:33N 38°02' E 023°32'0 0.0
2014-Oct-20 05:33N 38°02' E 023°32'0 0.0
2014-Oct-20 04:33N 38°02' E 023°32'0 0.0
2014-Oct-19 09:34N 38°02' E 023°32'6 6.0
2014-Oct-19 08:34N 37°57' E 023°36'1 0.8
2014-Oct-19 07:33N 37°58' E 023°36'0 0.0
2014-Oct-19 06:33N 37°58' E 023°36'0 0.0
2014-Oct-19 05:33N 37°58' E 023°36'3 3.2
2014-Oct-19 04:33N 37°59' E 023°33'3 3.4
2014-Oct-19 03:33N 38°02' E 023°32'0 0.0
2014-Oct-19 02:33N 38°02' E 023°32'0 0.0
2014-Oct-18 18:33N 38°02' E 023°32'1 0.7
2014-Oct-18 17:34N 38°02' E 023°32'5 5.1
2014-Oct-18 16:34N 37°57' E 023°36'1 0.2
2014-Oct-18 10:33N 37°57' E 023°36'1 0.8
2014-Oct-18 09:32N 37°56' E 023°37'0 0.0
2014-Oct-18 08:28N 37°56' E 023°37'0 0.0
2014-Oct-18 07:28N 37°56' E 023°37'0 0.0
2014-Oct-18 06:32N 37°56' E 023°37'0 0.0
2014-Oct-18 05:33N 37°56' E 023°37'1 0.6
2014-Oct-18 04:33N 37°56' E 023°37'2 2.0
2014-Oct-18 03:30N 37°57' E 023°34'0 0.0
2014-Oct-18 02:31N 37°57' E 023°34'0 0.0
2014-Oct-18 01:31N 37°57' E 023°34'0 0.0
2014-Oct-18 00:32N 37°57' E 023°34'0 0.0
2014-Oct-17 23:31N 37°57' E 023°34'4 4.5
2014-Oct-17 22:33N 37°53' E 023°32'0 0.0
2014-Oct-17 21:30N 37°53' E 023°32'0 0.0
2014-Oct-17 20:31N 37°53' E 023°32'0 0.1
2014-Oct-17 19:32N 37°53' E 023°32'4 3.9
2014-Oct-17 18:33N 37°56' E 023°35'1 0.9
2014-Oct-17 17:27N 37°57' E 023°34'1 1.6
2014-Oct-17 16:34N 37°58' E 023°33'4 0.2
2014-Oct-16 18:22N 38°02' E 023°33'2 0.2
2014-Oct-16 10:29N 38°02' E 023°36'1 0.6
2014-Oct-16 09:05N 38°02' E 023°35'0 0.0
2014-Oct-16 08:29N 38°02' E 023°35'2 0.1
2014-Oct-15 12:34N 38°00' E 023°33'4 3.7
2014-Oct-15 11:29N 37°58' E 023°36'0 0.0
2014-Oct-15 10:27N 37°58' E 023°36'0 0.3
2014-Oct-15 09:33N 37°57' E 023°36'1 1.1
2014-Oct-15 08:31N 37°57' E 023°35'0 0.3
2014-Oct-15 07:32N 37°57' E 023°34'5 5.3
2014-Oct-15 06:33N 38°02' E 023°32'  

Dump ship's entire track history